Minnehaha Springs, West Virginia
Current Conditions -  °F | °C
As of 1:15 AM on Thursday 29 Jan 2015 (Local Time) from KHSP Reporting Station
Clear Clear  
Wind Chill: -9°   Ceiling: Unl
Heat Index: -4°   Visibility: 10mi
Dew Point: -14°   Wind: 7mph
Humidity: 46%   Direction: 180°S
Pressure: 30.13"   Gusts: NA
Location:  38.2213°N, 80.0565°W
Report Text: KHSP 290615Z AUTO 18006KT 10SM CLR M04/M14 A3013 RMK AO2 T10421142
Loading
Personal Weather Stations






























Interactive Weather Map New forecast layout! Learn more

10-Day Weather Forecast

Advertisements
Track Severe Weather on mobile